Time;durP1;ratioP1;P1;durP2;ratioP2;P2;SDS_P1;SDS_P2;PMS_P1;PMS_P2;Temp;Humidity;BMP_temperature;BMP_pressure;BME280_temperature;BME280_humidity;BME280_pressure;Samples;Min_cycle;Max_cycle;Signal;HPM_P1;HPM_P2
2023/04/05 00:02:46;;;;;;;14.32;7.22;;;;;;;3.47;82.38;101346.53;8256828;28;20109;-59
2023/04/05 00:06:51;;;;;;;17.77;7.97;;;;;;;3.25;83.84;101345.88;8256258;28;20054;-54
2023/04/05 00:10:52;;;;;;;16.60;7.20;;;;;;;3.18;84.20;101344.44;8256122;28;20492;-55
2023/04/05 00:14:52;;;;;;;19.25;7.30;;;;;;;3.25;84.84;101339.66;8254957;28;20038;-52
2023/04/05 00:18:55;;;;;;;16.20;8.02;;;;;;;2.87;84.80;101336.13;8247043;28;20042;-58
2023/04/05 00:22:56;;;;;;;15.95;6.57;;;;;;;2.87;82.45;101333.47;8253008;28;20347;-59
2023/04/05 00:26:56;;;;;;;12.95;6.57;;;;;;;2.99;82.80;101332.88;8254596;28;20045;-59
2023/04/05 00:30:56;;;;;;;17.23;7.72;;;;;;;3.02;82.04;101326.56;8256337;28;20076;-58
2023/04/05 00:34:57;;;;;;;13.52;7.85;;;;;;;3.05;80.44;101321.06;8256032;28;20088;-53
2023/04/05 00:38:57;;;;;;;12.63;6.68;;;;;;;2.98;80.42;101319.59;8255577;28;20504;-54
2023/04/05 00:42:58;;;;;;;18.30;7.93;;;;;;;3.00;81.44;101307.06;8256144;28;20218;-53
2023/04/05 00:46:58;;;;;;;14.25;7.25;;;;;;;3.24;81.61;101328.13;8255768;28;20053;-53
2023/04/05 00:50:59;;;;;;;19.77;7.80;;;;;;;3.05;84.93;101321.91;8256127;28;20042;-58
2023/04/05 00:54:59;;;;;;;17.80;7.75;;;;;;;3.13;86.01;101317.06;8258619;28;20045;-59
2023/04/05 00:59:00;;;;;;;16.02;7.50;;;;;;;3.19;82.14;101314.09;8261902;28;20161;-58
2023/04/05 01:03:03;;;;;;;14.40;7.38;;;;;;;3.25;81.99;101313.81;8261650;28;20041;-54
2023/04/05 01:07:08;;;;;;;17.60;7.65;;;;;;;3.28;83.68;101310.97;8261283;28;20105;-54
2023/04/05 01:11:09;;;;;;;19.00;7.88;;;;;;;3.23;83.81;101307.66;8259276;28;20045;-53
2023/04/05 01:15:10;;;;;;;16.70;8.05;;;;;;;3.02;84.87;101310.53;8260565;28;20078;-53
2023/04/05 01:19:12;;;;;;;19.20;9.15;;;;;;;3.10;84.50;101308.34;8261046;28;20043;-54
2023/04/05 01:23:36;;;;;;;18.60;7.90;;;;;;;3.02;84.47;101306.03;8260741;28;20042;-53
2023/04/05 01:32:29;;;;;;;17.33;9.18;;;;;;;2.88;87.27;101296.97;8418065;27;20970;-52
2023/04/05 01:36:48;;;;;;;15.38;7.57;;;;;;;3.20;87.89;101298.94;8416245;28;20043;-51
2023/04/05 01:40:49;;;;;;;17.10;8.43;;;;;;;2.98;87.31;101303.59;8415466;28;20044;-52
2023/04/05 01:44:50;;;;;;;17.70;8.10;;;;;;;2.99;87.81;101290.16;8414045;28;20333;-52
2023/04/05 01:48:51;;;;;;;19.83;7.80;;;;;;;2.84;88.58;101288.22;8415405;28;20094;-53
2023/04/05 01:52:51;;;;;;;18.75;9.45;;;;;;;2.91;89.08;101291.47;8415512;28;20040;-52
2023/04/05 01:56:52;;;;;;;15.80;8.18;;;;;;;2.83;90.50;101282.94;8414335;28;20044;-53
2023/04/05 02:00:54;;;;;;;19.83;8.93;;;;;;;2.96;90.54;101282.28;8398026;28;20058;-53
2023/04/05 02:04:55;;;;;;;13.52;7.22;;;;;;;2.88;92.13;101276.47;8416588;28;20040;-51
2023/04/05 02:08:55;;;;;;;18.80;8.23;;;;;;;2.93;92.74;101278.91;8417785;28;20051;-53
2023/04/05 02:12:56;;;;;;;16.73;8.50;;;;;;;2.93;92.36;101279.75;8399221;28;20491;-54
2023/04/05 02:16:57;;;;;;;17.27;8.40;;;;;;;2.98;91.54;101284.88;8417528;28;20064;-53
2023/04/05 02:21:01;;;;;;;17.15;7.93;;;;;;;2.97;89.44;101276.03;8421936;28;20040;-53
2023/04/05 02:25:03;;;;;;;20.95;8.35;;;;;;;3.00;89.07;101270.53;8417096;28;20039;-53
2023/04/05 02:29:03;;;;;;;15.38;8.68;;;;;;;2.99;87.69;101279.47;8416231;28;20032;-53
2023/04/05 02:33:04;;;;;;;17.15;8.35;;;;;;;2.92;88.29;101283.38;8417441;28;20039;-52
2023/04/05 02:37:04;;;;;;;20.30;9.23;;;;;;;2.87;88.38;101274.72;8416648;28;20039;-52
2023/04/05 02:41:10;;;;;;;16.48;9.27;;;;;;;2.83;88.83;101267.81;8406615;28;20048;-53
2023/04/05 02:45:11;;;;;;;21.50;9.90;;;;;;;2.81;89.47;101285.69;8393798;28;20409;-52
2023/04/05 02:49:12;;;;;;;21.67;9.35;;;;;;;2.83;89.84;101289.16;8394460;28;20113;-53
2023/04/05 02:53:13;;;;;;;17.52;8.95;;;;;;;2.73;89.05;101282.53;8394280;28;20045;-58
2023/04/05 02:57:15;;;;;;;18.45;9.45;;;;;;;2.60;89.80;101276.06;8394092;28;20044;-52
2023/04/05 03:01:25;;;;;;;15.38;9.20;;;;;;;2.61;89.50;101271.56;8393353;28;20041;-53
2023/04/05 03:05:26;;;;;;;19.80;9.88;;;;;;;2.61;89.21;101276.91;8392875;28;20131;-50
2023/04/05 03:09:32;;;;;;;18.00;9.07;;;;;;;2.51;90.62;101276.47;8394085;28;20040;-52
2023/04/05 03:13:37;;;;;;;19.08;9.55;;;;;;;2.49;91.49;101273.00;8392861;28;20056;-52
2023/04/05 03:17:43;;;;;;;24.20;10.23;;;;;;;2.36;92.59;101253.19;8392083;28;20132;-51
2023/04/05 03:21:45;;;;;;;16.58;9.43;;;;;;;2.43;93.64;101270.63;8393153;28;20036;-52
2023/04/05 03:26:00;;;;;;;21.27;10.35;;;;;;;2.44;94.21;101264.34;8392678;28;20463;-53
2023/04/05 03:30:05;;;;;;;18.15;10.35;;;;;;;2.35;94.86;101264.75;8392609;28;20143;-51
2023/04/05 03:34:10;;;;;;;20.30;10.57;;;;;;;2.32;95.32;101269.41;8392468;28;20056;-51
2023/04/05 03:38:17;;;;;;;19.70;10.38;;;;;;;2.25;95.23;101263.47;8392550;28;20047;-51
2023/04/05 03:42:28;;;;;;;19.25;10.95;;;;;;;2.12;96.08;101259.63;8390872;28;20040;-52
2023/04/05 03:46:29;;;;;;;21.70;9.98;;;;;;;2.01;96.20;101256.56;8392267;28;20262;-52
2023/04/05 03:50:29;;;;;;;22.52;10.70;;;;;;;2.03;96.03;101247.59;8392404;28;20040;-51
2023/04/05 03:54:30;;;;;;;23.73;11.07;;;;;;;2.04;95.48;101248.44;8389392;28;20043;-53
2023/04/05 03:58:33;;;;;;;21.48;11.32;;;;;;;2.12;95.11;101254.31;8392022;28;20048;-53
2023/04/05 04:02:33;;;;;;;25.83;10.70;;;;;;;2.04;94.44;101248.44;8391583;28;20040;-58
2023/04/05 04:06:36;;;;;;;21.40;10.38;;;;;;;1.93;94.79;101256.06;8391562;28;20462;-58
2023/04/05 04:10:37;;;;;;;18.95;10.15;;;;;;;1.99;94.53;101253.13;8391803;28;20463;-58
2023/04/05 04:14:45;;;;;;;20.27;9.82;;;;;;;1.99;94.33;101253.13;8391032;28;20052;-58
2023/04/05 04:19:01;;;;;;;18.60;9.88;;;;;;;1.97;94.28;101255.00;8391153;28;20040;-58
2023/04/05 04:23:10;;;;;;;17.83;9.40;;;;;;;1.83;94.80;101252.09;8390433;28;20032;-58
2023/04/05 04:27:31;;;;;;;18.13;9.43;;;;;;;1.74;95.16;101249.81;8388763;28;20043;-58
2023/04/05 04:31:49;;;;;;;21.67;10.32;;;;;;;1.72;95.13;101246.34;8389626;28;20036;-58
2023/04/05 04:36:12;;;;;;;17.35;9.57;;;;;;;1.74;95.85;101245.34;8389878;28;20506;-58
2023/04/05 04:40:37;;;;;;;19.42;10.10;;;;;;;1.63;96.51;101252.97;8389459;28;20036;-57
2023/04/05 04:45:01;;;;;;;19.65;9.30;;;;;;;1.64;97.06;101256.47;8389871;28;20303;-57
2023/04/05 04:49:16;;;;;;;17.50;9.05;;;;;;;1.44;96.82;101257.31;8390855;28;20045;-58
2023/04/05 04:53:20;;;;;;;19.27;10.40;;;;;;;1.26;97.52;101254.59;8390272;28;20522;-58
2023/04/05 04:57:21;;;;;;;18.40;9.98;;;;;;;1.32;98.91;101251.66;8383555;28;20040;-56
2023/04/05 05:01:23;;;;;;;21.40;10.90;;;;;;;1.31;97.96;101260.59;8398991;28;20057;-57
2023/04/05 05:05:26;;;;;;;17.95;9.75;;;;;;;1.41;98.01;101261.94;8370858;28;20114;-57
2023/04/05 05:09:26;;;;;;;20.13;10.02;;;;;;;1.41;97.75;101267.25;8374196;28;20044;-57
2023/04/05 05:13:31;;;;;;;;;;;;;;;1.29;97.64;101262.44;8363893;28;20040;-57
2023/04/05 05:17:31;;;;;;;23.38;11.00;;;;;;;1.29;97.87;101262.44;8385528;28;19974;-57
2023/04/05 05:21:31;;;;;;;15.27;9.13;;;;;;;1.36;97.40;101263.91;8385246;28;20106;-59
2023/04/05 05:25:35;;;;;;;20.23;9.83;;;;;;;1.45;97.14;101253.75;8388625;28;20048;-57
2023/04/05 05:29:36;;;;;;;20.40;9.57;;;;;;;1.59;96.75;101256.66;8388597;28;20048;-57
2023/04/05 05:33:37;;;;;;;21.67;10.25;;;;;;;1.76;95.99;101253.28;8358010;28;20072;-57
2023/04/05 05:37:38;;;;;;;18.27;10.55;;;;;;;1.88;94.92;101255.41;8375231;28;20048;-58
2023/04/05 05:41:38;;;;;;;18.48;10.30;;;;;;;1.99;93.86;101250.47;8385549;28;20051;-58
2023/04/05 05:45:39;;;;;;;22.83;10.38;;;;;;;2.13;93.70;101248.03;8385761;28;20491;-57
2023/04/05 05:49:39;;;;;;;16.95;9.00;;;;;;;2.26;92.56;101243.88;8386107;28;20044;-58
2023/04/05 05:53:40;;;;;;;22.40;9.80;;;;;;;2.33;91.52;101260.44;8387691;28;21066;-58
2023/04/05 05:57:41;;;;;;;20.52;8.93;;;;;;;2.68;91.46;101263.19;8388459;28;20052;-58
2023/04/05 06:01:41;;;;;;;14.38;8.30;;;;;;;2.68;88.80;101257.84;8385452;28;20116;-57
2023/04/05 06:05:50;;;;;;;16.92;7.93;;;;;;;2.57;88.77;101270.84;8386170;28;20082;-53
2023/04/05 06:09:50;;;;;;;16.98;8.95;;;;;;;2.74;89.47;101265.56;8388101;28;20041;-52
2023/04/05 06:13:51;;;;;;;18.40;8.75;;;;;;;3.08;88.74;101268.34;8382045;28;20033;-55
2023/04/05 06:17:52;;;;;;;15.40;8.80;;;;;;;3.17;87.41;101264.38;8378438;28;20047;-57
2023/04/05 06:21:53;;;;;;;13.25;7.50;;;;;;;3.24;86.44;101263.13;8376953;28;20562;-58
2023/04/05 06:25:55;;;;;;;17.48;8.55;;;;;;;3.45;86.03;101259.38;8374207;28;20510;-58
2023/04/05 06:29:58;;;;;;;19.45;8.65;;;;;;;3.83;85.69;101264.47;8352649;28;20429;-58
2023/04/05 06:33:59;;;;;;;16.73;8.68;;;;;;;3.90;84.34;101268.56;8376409;28;20084;-58
2023/04/05 06:38:00;;;;;;;16.25;9.05;;;;;;;4.19;83.12;101260.78;8377056;28;20050;-58
2023/04/05 06:42:00;;;;;;;19.98;8.57;;;;;;;4.41;82.48;101250.66;8354734;28;20120;-58
2023/04/05 06:46:11;;;;;;;19.35;7.65;;;;;;;4.73;82.08;101253.25;8370396;28;20504;-58
2023/04/05 06:50:11;;;;;;;14.50;7.70;;;;;;;4.81;80.79;101258.19;8376783;28;20114;-58
2023/04/05 06:54:12;;;;;;;16.13;8.55;;;;;;;5.25;79.65;101267.25;8375195;28;20041;-58
2023/04/05 06:58:12;;;;;;;18.98;8.20;;;;;;;5.61;79.44;101259.72;8381783;28;20048;-58
2023/04/05 07:02:13;;;;;;;20.85;8.68;;;;;;;5.78;80.04;101262.25;8375308;28;20059;-58
2023/04/05 07:06:14;;;;;;;15.15;7.25;;;;;;;5.91;76.64;101260.59;8378028;28;20045;-58
2023/04/05 07:10:15;;;;;;;18.70;9.05;;;;;;;6.03;76.21;101258.03;8370970;28;20048;-58
2023/04/05 07:14:15;;;;;;;17.58;8.48;;;;;;;5.99;76.27;101251.16;8366233;28;20047;-58
2023/04/05 07:18:17;;;;;;;18.55;8.80;;;;;;;6.25;75.23;101252.19;8371505;28;20041;-58
2023/04/05 07:22:17;;;;;;;16.63;8.05;;;;;;;6.17;75.39;101248.28;8380201;28;20036;-58
2023/04/05 07:26:18;;;;;;;24.27;8.73;;;;;;;6.55;76.07;101244.03;8392648;28;20037;-58
2023/04/05 07:30:19;;;;;;;17.88;7.75;;;;;;;6.62;75.64;101246.22;8390254;28;20066;-58
2023/04/05 07:34:19;;;;;;;20.88;9.38;;;;;;;6.73;72.33;101248.22;8378120;28;20491;-58
2023/04/05 07:38:20;;;;;;;19.77;8.57;;;;;;;6.99;72.86;101248.28;8376673;28;20037;-58
2023/04/05 07:42:20;;;;;;;17.27;9.00;;;;;;;6.89;71.64;101252.53;8376426;28;20044;-56
2023/04/05 07:46:21;;;;;;;19.05;8.40;;;;;;;7.08;72.05;101246.81;8378554;28;20044;-56
2023/04/05 07:50:21;;;;;;;19.92;9.93;;;;;;;7.14;71.81;101254.47;8392547;28;20525;-57
2023/04/05 07:54:22;;;;;;;20.95;9.90;;;;;;;7.31;69.70;101252.41;8377959;28;20044;-57
2023/04/05 07:58:23;;;;;;;25.27;10.48;;;;;;;7.65;69.51;101249.16;8373583;28;20048;-58
2023/04/05 08:02:23;;;;;;;26.42;9.50;;;;;;;7.23;70.14;101254.72;8346599;28;20069;-57
2023/04/05 08:06:26;;;;;;;21.80;8.70;;;;;;;7.53;69.28;101251.81;8362006;28;20052;-57
2023/04/05 08:10:26;;;;;;;24.83;9.10;;;;;;;7.74;68.46;101243.16;8374721;28;20049;-57
2023/04/05 08:14:27;;;;;;;19.98;9.45;;;;;;;7.96;67.65;101243.38;8377977;28;20532;-58
2023/04/05 08:18:28;;;;;;;17.52;9.57;;;;;;;8.44;68.58;101243.63;8384645;28;20032;-58
2023/04/05 08:22:28;;;;;;;20.38;8.98;;;;;;;8.29;64.46;101247.44;8365942;28;20045;-54
2023/04/05 08:26:28;;;;;;;18.35;9.43;;;;;;;8.61;64.39;101248.69;8365440;28;20051;-54
2023/04/05 08:30:29;;;;;;;18.10;9.00;;;;;;;8.62;64.11;101239.63;8359565;28;20048;-53
2023/04/05 08:34:30;;;;;;;19.77;9.52;;;;;;;9.28;62.54;101245.47;8387882;28;20499;-53
2023/04/05 08:38:30;;;;;;;18.58;9.27;;;;;;;9.59;64.15;101243.03;8367273;28;20114;-53
2023/04/05 08:42:36;;;;;;;19.55;9.02;;;;;;;9.73;62.10;101242.84;8353478;28;20037;-54
2023/04/05 08:46:37;;;;;;;20.65;8.70;;;;;;;9.76;61.22;101233.66;8344735;28;20048;-58
2023/04/05 08:50:38;;;;;;;17.00;9.00;;;;;;;9.50;63.86;101230.25;8324522;28;20042;-58
2023/04/05 08:54:38;;;;;;;16.80;9.07;;;;;;;9.45;61.46;101236.94;8337660;28;20034;-58
2023/04/05 08:58:40;;;;;;;18.25;9.63;;;;;;;9.63;62.69;101240.94;8322460;28;20041;-58
2023/04/05 09:02:43;;;;;;;25.25;10.13;;;;;;;9.74;60.46;101241.00;8331585;28;20048;-58
2023/04/05 09:06:45;;;;;;;14.00;8.60;;;;;;;9.69;59.68;101235.09;8338399;28;20514;-52
2023/04/05 09:10:47;;;;;;;19.45;8.82;;;;;;;9.78;59.25;101234.38;8375871;28;20037;-53
2023/04/05 09:14:49;;;;;;;17.63;10.00;;;;;;;10.32;61.81;101229.25;8361280;28;20495;-53
2023/04/05 09:18:49;;;;;;;20.45;8.93;;;;;;;10.46;59.28;101231.72;8330821;28;20404;-54
2023/04/05 09:22:50;;;;;;;18.80;9.15;;;;;;;10.30;57.95;101229.38;8342254;28;20059;-54
2023/04/05 09:27:04;;;;;;;17.30;9.27;;;;;;;10.69;57.81;101223.47;8354531;28;20047;-54
2023/04/05 09:31:04;;;;;;;17.95;8.88;;;;;;;10.57;55.38;101229.88;8353576;28;20060;-54
2023/04/05 09:35:05;;;;;;;17.35;8.68;;;;;;;11.51;51.83;101229.19;8353409;28;20033;-53
2023/04/05 09:39:09;;;;;;;16.67;8.40;;;;;;;13.90;50.31;101217.44;8351307;28;20068;-53
2023/04/05 09:43:11;;;;;;;18.55;8.50;;;;;;;15.29;44.65;101215.50;8340206;28;20076;-54
2023/04/05 09:47:20;;;;;;;14.48;8.43;;;;;;;16.30;45.25;101210.47;8317400;28;20488;-54
2023/04/05 09:51:32;;;;;;;12.50;8.17;;;;;;;17.04;43.33;101212.44;8329668;28;20450;-54
2023/04/05 09:55:33;;;;;;;13.93;7.53;;;;;;;16.12;41.59;101217.81;8357856;28;20110;-54
2023/04/05 09:59:34;;;;;;;13.00;7.75;;;;;;;17.13;42.39;101207.84;8355847;28;20090;-54
2023/04/05 10:03:45;;;;;;;20.02;8.45;;;;;;;17.60;41.47;101207.13;8350750;28;20044;-53
2023/04/05 10:07:45;;;;;;;13.40;7.38;;;;;;;18.49;39.93;101196.16;8358379;28;20033;-53
2023/04/05 10:11:46;;;;;;;10.02;6.50;;;;;;;17.97;38.75;101201.19;8357909;28;20044;-57
2023/04/05 10:15:51;;;;;;;11.77;7.18;;;;;;;17.55;39.91;101184.06;8325823;28;20348;-57
2023/04/05 10:20:14;;;;;;;16.15;8.02;;;;;;;18.23;40.24;101196.34;8338899;28;20341;-57
2023/04/05 10:24:30;;;;;;;14.68;8.50;;;;;;;18.85;39.68;101197.44;8354561;28;20457;-57
2023/04/05 10:28:46;;;;;;;12.63;7.75;;;;;;;18.43;40.67;101178.56;8352196;28;20527;-58
2023/04/05 10:33:15;;;;;;;15.70;8.80;;;;;;;19.03;41.42;101174.19;8350287;28;20060;-57
2023/04/05 10:37:32;;;;;;;12.80;7.15;;;;;;;18.96;38.64;101177.84;8326266;28;20120;-59
2023/04/05 10:41:39;;;;;;;11.10;6.85;;;;;;;17.83;38.29;101171.75;8338937;28;20041;-57
2023/04/05 10:45:41;;;;;;;12.60;6.90;;;;;;;19.31;40.89;101169.97;8337999;28;20082;-57
2023/04/05 10:49:48;;;;;;;12.15;7.13;;;;;;;20.27;37.90;101159.22;8354695;28;20037;-57
2023/04/05 10:53:49;;;;;;;13.98;7.32;;;;;;;20.36;37.88;101160.84;8350406;28;20064;-57
2023/04/05 10:57:52;;;;;;;10.43;7.30;;;;;;;20.40;38.43;101162.22;8352043;28;20033;-58
2023/04/05 11:01:54;;;;;;;10.55;7.00;;;;;;;19.77;37.45;101150.78;8348875;28;20052;-57
2023/04/05 11:06:30;;;;;;;7.82;5.82;;;;;;;18.88;37.22;101159.53;8337146;28;20033;-58
2023/04/05 11:10:35;;;;;;;11.30;7.00;;;;;;;19.96;39.76;101144.75;8349101;28;20055;-58
2023/04/05 11:14:38;;;;;;;10.68;7.03;;;;;;;20.02;37.77;101139.38;8339938;28;20064;-59
2023/04/05 11:18:45;;;;;;;10.40;6.63;;;;;;;21.70;35.44;101132.72;8347802;28;20521;-59
2023/04/05 11:22:53;;;;;;;11.55;6.40;;;;;;;21.96;35.27;101130.25;8351302;28;20123;-58
2023/04/05 11:26:54;;;;;;;12.82;6.65;;;;;;;22.28;33.15;101133.25;8345010;28;20091;-58
2023/04/05 11:30:57;;;;;;;12.27;6.28;;;;;;;20.72;35.66;101137.09;8347752;28;20041;-58
2023/04/05 11:35:00;;;;;;;7.95;5.90;;;;;;;21.10;32.99;101125.75;8339764;28;20033;-58
2023/04/05 11:43:34;;;;;;;9.85;6.28;;;;;;;19.59;35.45;101120.06;8386122;27;20393;-57
2023/04/05 11:47:36;;;;;;;12.93;6.95;;;;;;;21.14;34.90;101115.25;8381624;28;20033;-57
2023/04/05 11:51:36;;;;;;;9.80;6.40;;;;;;;22.59;33.66;101114.41;8407693;28;20036;-57
2023/04/05 11:55:38;;;;;;;12.25;6.05;;;;;;;23.56;32.89;101101.16;8390598;28;20063;-57
2023/04/05 11:59:39;;;;;;;9.80;6.70;;;;;;;23.96;33.53;101095.50;8409049;28;20120;-58
2023/04/05 12:03:40;;;;;;;9.60;6.85;;;;;;;23.09;32.79;101100.19;8392382;28;20052;-58
2023/04/05 12:07:40;;;;;;;9.90;6.43;;;;;;;21.78;34.09;101089.47;8408940;28;20044;-58
2023/04/05 12:11:40;;;;;;;9.88;6.93;;;;;;;21.04;33.73;101092.66;8391576;28;20045;-58
2023/04/05 12:15:44;;;;;;;9.70;6.70;;;;;;;20.00;37.31;101086.56;8403043;28;20544;-56
2023/04/05 12:19:45;;;;;;;11.80;7.07;;;;;;;20.13;34.73;101074.97;8408250;28;20046;-52
2023/04/05 12:23:45;;;;;;;11.63;7.50;;;;;;;18.52;37.09;101081.66;8409134;28;20052;-53
2023/04/05 12:27:46;;;;;;;13.27;7.80;;;;;;;17.83;37.85;101084.22;8402678;28;20406;-52
2023/04/05 12:31:50;;;;;;;10.00;7.18;;;;;;;16.27;38.55;101075.19;8405652;28;20040;-51
2023/04/05 12:35:50;;;;;;;14.02;7.57;;;;;;;14.77;41.69;101070.09;8412976;28;20121;-46
2023/04/05 12:39:53;;;;;;;10.13;6.97;;;;;;;13.76;42.27;101065.72;8406638;28;20048;-53
2023/04/05 12:44:00;;;;;;;11.82;7.13;;;;;;;14.09;43.98;101056.97;8364041;28;20072;-48
2023/04/05 12:48:01;;;;;;;12.88;7.63;;;;;;;13.46;41.75;101058.63;8373387;28;20037;-52
2023/04/05 12:52:01;;;;;;;12.45;7.43;;;;;;;13.94;42.90;101058.50;8369657;28;20041;-52
2023/04/05 12:56:05;;;;;;;36.28;10.30;;;;;;;14.13;44.88;101047.53;8353164;28;20049;-52
2023/04/05 13:00:07;;;;;;;15.48;7.43;;;;;;;13.71;43.07;101047.13;8341259;28;20702;-53
2023/04/05 13:04:09;;;;;;;13.05;7.80;;;;;;;14.20;44.00;101037.75;8338083;28;20057;-52
2023/04/05 13:08:09;;;;;;;24.38;8.80;;;;;;;13.67;44.03;101040.25;8343353;28;20081;-52
2023/04/05 13:12:10;;;;;;;12.52;8.43;;;;;;;13.78;43.38;101033.78;8354022;28;20037;-53
2023/04/05 13:16:10;;;;;;;13.13;7.25;;;;;;;14.08;43.46;101028.09;8351926;28;20044;-55
2023/04/05 13:20:11;;;;;;;11.38;7.78;;;;;;;14.38;42.88;101022.38;8353293;28;20044;-53
2023/04/05 13:24:11;;;;;;;15.43;7.60;;;;;;;14.37;42.91;101017.09;8353087;28;20041;-53
2023/04/05 13:28:12;;;;;;;12.75;7.70;;;;;;;14.69;42.71;101012.84;8350323;28;20435;-53
2023/04/05 13:32:13;;;;;;;12.75;8.05;;;;;;;13.76;43.03;101023.06;8346597;28;20075;-58
2023/04/05 13:36:13;;;;;;;15.68;8.10;;;;;;;13.98;44.96;101008.25;8351190;28;20040;-56
2023/04/05 13:40:15;;;;;;;27.95;9.25;;;;;;;14.13;43.98;101008.59;8340952;28;20033;-56
2023/04/05 13:44:16;;;;;;;14.70;8.40;;;;;;;13.78;43.64;101002.03;8341137;28;20493;-56
2023/04/05 13:48:16;;;;;;;18.25;8.38;;;;;;;13.72;44.03;100999.06;8350919;28;20134;-56
2023/04/05 13:52:16;;;;;;;14.70;8.48;;;;;;;13.42;44.04;100991.19;8352565;28;20033;-56
2023/04/05 13:56:17;;;;;;;16.50;8.48;;;;;;;14.24;44.45;100984.81;8351181;28;20040;-56
2023/04/05 14:00:17;;;;;;;18.20;9.02;;;;;;;14.02;43.68;100979.75;8344833;28;20116;-57
2023/04/05 14:04:18;;;;;;;13.13;8.38;;;;;;;13.51;43.89;100974.00;8336222;28;20033;-56
2023/04/05 14:08:19;;;;;;;13.23;8.77;;;;;;;13.71;45.88;100971.03;8348824;28;20033;-56
2023/04/05 14:12:19;;;;;;;14.90;8.55;;;;;;;13.50;45.85;100967.69;8347223;28;20041;-56
2023/04/05 14:16:20;;;;;;;18.83;9.50;;;;;;;13.92;45.58;100968.06;8316118;28;20034;-58
2023/04/05 14:20:20;;;;;;;19.52;9.35;;;;;;;13.90;44.15;100961.94;8318136;28;20115;-57
2023/04/05 14:24:21;;;;;;;14.88;9.05;;;;;;;13.91;45.15;100958.22;8349663;28;20094;-56
2023/04/05 14:28:21;;;;;;;16.00;9.43;;;;;;;13.96;44.93;100945.00;8348334;28;20040;-55
2023/04/05 14:32:23;;;;;;;17.27;9.45;;;;;;;14.06;45.56;100947.69;8345716;28;20073;-55
2023/04/05 14:36:25;;;;;;;17.52;9.75;;;;;;;14.05;45.89;100941.38;8342485;28;20029;-56
2023/04/05 14:40:26;;;;;;;16.58;9.93;;;;;;;13.82;45.59;100934.66;8346453;28;20525;-56
2023/04/05 14:44:26;;;;;;;19.23;9.88;;;;;;;13.91;46.24;100928.31;8315280;28;20115;-54
2023/04/05 14:48:29;;;;;;;18.00;9.57;;;;;;;13.54;44.90;100922.03;8327533;28;20590;-57
2023/04/05 14:52:29;;;;;;;16.83;9.32;;;;;;;13.34;44.80;100923.16;8365086;28;20495;-56
2023/04/05 14:56:30;;;;;;;19.35;9.45;;;;;;;13.63;46.06;100918.44;8336223;28;20442;-56
2023/04/05 15:00:30;;;;;;;16.75;9.70;;;;;;;13.67;45.86;100925.31;8337383;28;20111;-56
2023/04/05 15:04:31;;;;;;;17.38;9.88;;;;;;;13.61;45.06;100920.47;8328663;28;20042;-57
2023/04/05 15:08:32;;;;;;;16.65;9.77;;;;;;;13.69;44.76;100917.84;8321548;28;20566;-53
2023/04/05 15:12:32;;;;;;;26.27;9.57;;;;;;;13.46;45.09;100916.53;8326960;28;20037;-52
2023/04/05 15:16:33;;;;;;;15.57;8.73;;;;;;;13.65;45.76;100900.13;8331537;28;20037;-52
2023/04/05 15:20:34;;;;;;;19.40;9.93;;;;;;;13.78;45.13;100900.63;8324924;28;20056;-52
2023/04/05 15:24:36;;;;;;;22.15;10.63;;;;;;;13.97;46.16;100905.09;8343595;28;20051;-54
2023/04/05 15:28:36;;;;;;;18.83;10.98;;;;;;;13.72;45.38;100904.81;8347129;28;20037;-53
2023/04/05 15:32:37;;;;;;;21.98;10.57;;;;;;;13.80;46.64;100907.63;8345869;28;20067;-53
2023/04/05 15:36:38;;;;;;;22.45;11.93;;;;;;;13.51;46.21;100898.75;8349293;28;20041;-52
2023/04/05 15:40:39;;;;;;;24.70;12.07;;;;;;;13.46;47.01;100901.09;8346633;28;20131;-53
2023/04/05 15:44:41;;;;;;;19.90;11.88;;;;;;;13.48;46.40;100899.06;8327416;28;20171;-52
2023/04/05 15:48:42;;;;;;;21.55;10.35;;;;;;;13.54;45.13;100892.16;8316352;28;20045;-54
2023/04/05 15:52:43;;;;;;;17.40;9.48;;;;;;;13.76;45.22;100899.94;8317865;28;20152;-54
2023/04/05 15:56:44;;;;;;;20.40;9.30;;;;;;;13.92;45.25;100902.84;8328376;28;20059;-53
2023/04/05 16:00:44;;;;;;;20.38;9.77;;;;;;;13.88;45.72;100892.44;8322334;28;20132;-54
2023/04/05 16:04:45;;;;;;;15.70;9.02;;;;;;;13.81;46.24;100890.31;8330768;28;20055;-54
2023/04/05 16:08:45;;;;;;;19.33;9.15;;;;;;;13.59;46.28;100879.00;8316022;28;20037;-53
2023/04/05 16:12:46;;;;;;;12.98;8.30;;;;;;;13.55;45.71;100885.75;8322511;28;20430;-53
2023/04/05 16:16:46;;;;;;;15.57;8.70;;;;;;;13.49;45.18;100886.34;8315289;28;20057;-51
2023/04/05 16:20:47;;;;;;;22.60;10.02;;;;;;;13.29;45.01;100887.41;8319630;28;20055;-54
2023/04/05 16:24:47;;;;;;;15.82;8.75;;;;;;;13.35;45.81;100886.81;8332560;28;20499;-53
2023/04/05 16:28:48;;;;;;;21.60;9.38;;;;;;;13.33;45.61;100888.84;8331938;28;20036;-53
2023/04/05 16:32:50;;;;;;;19.90;9.98;;;;;;;13.28;46.44;100880.28;8335778;28;20045;-53
2023/04/05 16:36:51;;;;;;;19.48;9.68;;;;;;;13.20;45.87;100866.59;8323044;28;20098;-58
2023/04/05 16:40:51;;;;;;;17.75;9.82;;;;;;;13.08;46.40;100876.78;8322352;28;20037;-56
2023/04/05 16:44:52;;;;;;;15.77;8.90;;;;;;;13.12;47.39;100877.34;8341707;28;20110;-54
2023/04/05 16:48:52;;;;;;;19.75;10.18;;;;;;;12.89;47.75;100884.09;8343746;28;20045;-52
2023/04/05 16:52:53;;;;;;;22.90;10.77;;;;;;;13.00;48.69;100886.69;8314342;28;20049;-53
2023/04/05 16:56:55;;;;;;;20.48;9.57;;;;;;;13.04;48.67;100882.66;8348635;28;20045;-55
2023/04/05 17:00:57;;;;;;;17.95;9.75;;;;;;;12.98;47.69;100883.22;8353171;28;20086;-54
2023/04/05 17:04:58;;;;;;;19.60;10.40;;;;;;;12.75;47.52;100877.25;8348130;28;20045;-53
2023/04/05 17:08:58;;;;;;;15.30;9.50;;;;;;;12.80;49.10;100882.25;8350518;28;20032;-51
2023/04/05 17:12:59;;;;;;;20.45;10.52;;;;;;;12.71;49.83;100883.13;8339805;28;20041;-52
2023/04/05 17:17:00;;;;;;;21.92;10.32;;;;;;;12.53;49.47;100883.00;8335803;28;20052;-53
2023/04/05 17:21:00;;;;;;;22.52;11.00;;;;;;;12.50;48.80;100882.47;8343990;28;20306;-51
2023/04/05 17:25:04;;;;;;;21.35;9.57;;;;;;;12.48;48.80;100873.59;8348438;28;20048;-51
2023/04/05 17:29:04;;;;;;;18.73;9.88;;;;;;;12.38;48.66;100879.00;8351891;28;20422;-52
2023/04/05 17:33:05;;;;;;;21.00;9.93;;;;;;;12.35;48.72;100883.88;8336695;28;20396;-57
2023/04/05 17:37:05;;;;;;;15.93;9.30;;;;;;;12.09;48.99;100878.16;8336461;28;20064;-59
2023/04/05 17:41:05;;;;;;;21.77;9.52;;;;;;;11.93;49.89;100873.28;8324794;28;20048;-59
2023/04/05 17:45:06;;;;;;;16.23;9.25;;;;;;;11.81;49.77;100879.81;8329490;28;20037;-58
2023/04/05 17:49:07;;;;;;;18.85;10.35;;;;;;;11.72;49.22;100875.25;8339965;28;20051;-58
2023/04/05 17:53:07;;;;;;;16.77;9.88;;;;;;;11.45;51.48;100872.31;8373126;28;20033;-59
2023/04/05 17:57:14;;;;;;;16.35;9.18;;;;;;;11.23;51.91;100877.06;8328980;28;20527;-61
2023/04/05 18:01:14;;;;;;;16.52;9.27;;;;;;;11.22;52.91;100870.78;8340982;28;20051;-58
2023/04/05 18:05:15;;;;;;;13.98;9.18;;;;;;;10.97;53.93;100882.06;8341567;28;20052;-59
2023/04/05 18:09:16;;;;;;;18.55;10.00;;;;;;;10.82;53.41;100882.53;8351120;28;20289;-59
2023/04/05 18:13:16;;;;;;;18.25;9.15;;;;;;;10.55;54.28;100877.66;8349259;28;20052;-59
2023/04/05 18:17:17;;;;;;;22.17;9.23;;;;;;;10.24;54.74;100883.97;8347319;28;20183;-59
2023/04/05 18:21:18;;;;;;;20.77;10.32;;;;;;;9.87;55.95;100882.59;8319992;28;20139;-59
2023/04/05 18:25:18;;;;;;;22.70;9.90;;;;;;;9.66;56.71;100881.66;8347758;28;20036;-60
2023/04/05 18:29:19;;;;;;;21.02;10.18;;;;;;;9.65;57.10;100879.97;8349984;28;20123;-59
2023/04/05 18:33:21;;;;;;;17.80;9.20;;;;;;;9.61;57.56;100894.69;8349034;28;20036;-60
2023/04/05 18:37:22;;;;;;;19.17;9.85;;;;;;;9.37;59.61;100899.38;8347656;28;20040;-59
2023/04/05 18:41:23;;;;;;;22.15;10.32;;;;;;;9.06;60.41;100906.34;8341457;28;20516;-59
2023/04/05 18:45:23;;;;;;;19.55;9.80;;;;;;;8.81;61.35;100893.09;8317524;28;20459;-56
2023/04/05 18:49:24;;;;;;;17.70;9.38;;;;;;;8.91;59.86;100901.34;8318259;28;20499;-55